sensor_id;sensor_type;location;lat;lon;timestamp;P1;durP1;ratioP1;P2;durP2;ratioP2
21543;SDS011;10933;50.754;11.508;2023-05-16T00:00:53;12.00;;;11.40;;
21543;SDS011;10933;50.754;11.508;2023-05-16T00:03:20;12.60;;;11.97;;
21543;SDS011;10933;50.754;11.508;2023-05-16T00:05:46;13.10;;;12.20;;
21543;SDS011;10933;50.754;11.508;2023-05-16T00:08:12;12.87;;;12.23;;
21543;SDS011;10933;50.754;11.508;2023-05-16T00:10:38;11.70;;;11.20;;
21543;SDS011;10933;50.754;11.508;2023-05-16T00:13:04;12.73;;;11.90;;
21543;SDS011;10933;50.754;11.508;2023-05-16T00:15:31;11.50;;;11.00;;
21543;SDS011;10933;50.754;11.508;2023-05-16T00:17:57;12.80;;;12.00;;
21543;SDS011;10933;50.754;11.508;2023-05-16T00:20:27;12.83;;;11.90;;
21543;SDS011;10933;50.754;11.508;2023-05-16T00:22:54;13.83;;;12.93;;
21543;SDS011;10933;50.754;11.508;2023-05-16T00:25:22;12.77;;;12.17;;
21543;SDS011;10933;50.754;11.508;2023-05-16T00:27:48;12.97;;;12.37;;
21543;SDS011;10933;50.754;11.508;2023-05-16T00:30:14;12.33;;;11.70;;
21543;SDS011;10933;50.754;11.508;2023-05-16T00:32:41;13.63;;;12.93;;
21543;SDS011;10933;50.754;11.508;2023-05-16T00:35:07;13.30;;;12.70;;
21543;SDS011;10933;50.754;11.508;2023-05-16T00:37:35;13.93;;;13.13;;
21543;SDS011;10933;50.754;11.508;2023-05-16T00:40:02;13.93;;;13.13;;
21543;SDS011;10933;50.754;11.508;2023-05-16T00:42:29;12.97;;;12.07;;
21543;SDS011;10933;50.754;11.508;2023-05-16T00:44:55;14.30;;;13.13;;
21543;SDS011;10933;50.754;11.508;2023-05-16T00:47:21;14.27;;;13.37;;
21543;SDS011;10933;50.754;11.508;2023-05-16T00:49:47;13.40;;;12.70;;
21543;SDS011;10933;50.754;11.508;2023-05-16T00:52:14;12.90;;;12.30;;
21543;SDS011;10933;50.754;11.508;2023-05-16T00:54:40;14.37;;;13.00;;
21543;SDS011;10933;50.754;11.508;2023-05-16T00:57:06;17.50;;;16.33;;
21543;SDS011;10933;50.754;11.508;2023-05-16T00:59:32;12.87;;;12.27;;
21543;SDS011;10933;50.754;11.508;2023-05-16T01:01:59;14.07;;;12.80;;
21543;SDS011;10933;50.754;11.508;2023-05-16T01:04:26;13.70;;;13.03;;
21543;SDS011;10933;50.754;11.508;2023-05-16T01:06:53;26.23;;;24.47;;
21543;SDS011;10933;50.754;11.508;2023-05-16T01:09:20;23.30;;;22.17;;
21543;SDS011;10933;50.754;11.508;2023-05-16T01:20:30;13.07;;;12.17;;
21543;SDS011;10933;50.754;11.508;2023-05-16T01:23:04;12.73;;;12.03;;
21543;SDS011;10933;50.754;11.508;2023-05-16T01:28:09;13.63;;;12.73;;
21543;SDS011;10933;50.754;11.508;2023-05-16T01:30:40;13.83;;;13.13;;
21543;SDS011;10933;50.754;11.508;2023-05-16T01:33:06;13.40;;;12.60;;
21543;SDS011;10933;50.754;11.508;2023-05-16T01:35:34;13.33;;;12.63;;
21543;SDS011;10933;50.754;11.508;2023-05-16T01:38:15;14.57;;;13.57;;
21543;SDS011;10933;50.754;11.508;2023-05-16T01:43:54;14.30;;;13.37;;
21543;SDS011;10933;50.754;11.508;2023-05-16T01:46:27;13.30;;;12.60;;
21543;SDS011;10933;50.754;11.508;2023-05-16T01:51:51;13.83;;;13.00;;
21543;SDS011;10933;50.754;11.508;2023-05-16T01:54:24;14.00;;;13.10;;
21543;SDS011;10933;50.754;11.508;2023-05-16T01:56:55;14.23;;;13.43;;
21543;SDS011;10933;50.754;11.508;2023-05-16T01:59:22;12.73;;;12.13;;
21543;SDS011;10933;50.754;11.508;2023-05-16T02:01:52;12.87;;;12.27;;
21543;SDS011;10933;50.754;11.508;2023-05-16T02:04:18;13.27;;;12.60;;
21543;SDS011;10933;50.754;11.508;2023-05-16T02:06:45;14.10;;;13.43;;
21543;SDS011;10933;50.754;11.508;2023-05-16T02:09:11;14.20;;;13.27;;
21543;SDS011;10933;50.754;11.508;2023-05-16T02:11:37;14.17;;;13.07;;
21543;SDS011;10933;50.754;11.508;2023-05-16T02:14:03;13.43;;;12.83;;
21543;SDS011;10933;50.754;11.508;2023-05-16T02:16:29;13.20;;;12.43;;
21543;SDS011;10933;50.754;11.508;2023-05-16T02:18:55;12.97;;;12.37;;
21543;SDS011;10933;50.754;11.508;2023-05-16T02:21:22;13.57;;;12.70;;
21543;SDS011;10933;50.754;11.508;2023-05-16T02:23:48;11.93;;;11.33;;
21543;SDS011;10933;50.754;11.508;2023-05-16T02:26:14;13.90;;;13.10;;
21543;SDS011;10933;50.754;11.508;2023-05-16T02:28:40;14.03;;;13.03;;
21543;SDS011;10933;50.754;11.508;2023-05-16T02:31:06;13.57;;;12.50;;
21543;SDS011;10933;50.754;11.508;2023-05-16T02:33:33;13.50;;;12.90;;
21543;SDS011;10933;50.754;11.508;2023-05-16T02:35:59;13.30;;;12.60;;
21543;SDS011;10933;50.754;11.508;2023-05-16T02:38:25;12.83;;;12.03;;
21543;SDS011;10933;50.754;11.508;2023-05-16T02:40:51;13.70;;;13.10;;
21543;SDS011;10933;50.754;11.508;2023-05-16T02:43:17;13.57;;;12.97;;
21543;SDS011;10933;50.754;11.508;2023-05-16T02:45:43;13.33;;;12.20;;
21543;SDS011;10933;50.754;11.508;2023-05-16T02:48:10;11.77;;;11.23;;
21543;SDS011;10933;50.754;11.508;2023-05-16T02:50:36;14.33;;;13.43;;
21543;SDS011;10933;50.754;11.508;2023-05-16T02:53:04;16.80;;;15.40;;
21543;SDS011;10933;50.754;11.508;2023-05-16T02:55:30;17.60;;;16.33;;
21543;SDS011;10933;50.754;11.508;2023-05-16T02:57:56;16.90;;;16.00;;
21543;SDS011;10933;50.754;11.508;2023-05-16T03:00:23;16.90;;;15.97;;
21543;SDS011;10933;50.754;11.508;2023-05-16T03:02:49;18.27;;;16.97;;
21543;SDS011;10933;50.754;11.508;2023-05-16T03:05:15;17.93;;;16.93;;
21543;SDS011;10933;50.754;11.508;2023-05-16T03:07:41;22.43;;;20.97;;
21543;SDS011;10933;50.754;11.508;2023-05-16T03:10:07;20.43;;;19.13;;
21543;SDS011;10933;50.754;11.508;2023-05-16T03:12:34;17.30;;;16.30;;
21543;SDS011;10933;50.754;11.508;2023-05-16T03:15:00;15.67;;;14.87;;
21543;SDS011;10933;50.754;11.508;2023-05-16T03:17:26;16.27;;;14.90;;
21543;SDS011;10933;50.754;11.508;2023-05-16T03:19:53;15.20;;;14.40;;
21543;SDS011;10933;50.754;11.508;2023-05-16T03:22:19;15.87;;;14.97;;
21543;SDS011;10933;50.754;11.508;2023-05-16T03:24:45;15.43;;;14.20;;
21543;SDS011;10933;50.754;11.508;2023-05-16T03:27:11;14.63;;;13.93;;
21543;SDS011;10933;50.754;11.508;2023-05-16T03:29:37;15.03;;;14.30;;
21543;SDS011;10933;50.754;11.508;2023-05-16T03:32:03;16.17;;;15.10;;
21543;SDS011;10933;50.754;11.508;2023-05-16T03:34:30;16.97;;;16.13;;
21543;SDS011;10933;50.754;11.508;2023-05-16T03:36:56;16.50;;;15.30;;
21543;SDS011;10933;50.754;11.508;2023-05-16T03:39:22;17.23;;;16.13;;
21543;SDS011;10933;50.754;11.508;2023-05-16T03:41:48;16.90;;;15.60;;
21543;SDS011;10933;50.754;11.508;2023-05-16T03:44:15;16.47;;;14.87;;
21543;SDS011;10933;50.754;11.508;2023-05-16T03:46:42;14.80;;;13.90;;
21543;SDS011;10933;50.754;11.508;2023-05-16T03:49:08;15.20;;;14.40;;
21543;SDS011;10933;50.754;11.508;2023-05-16T03:51:34;15.50;;;14.70;;
21543;SDS011;10933;50.754;11.508;2023-05-16T03:54:00;16.10;;;15.07;;
21543;SDS011;10933;50.754;11.508;2023-05-16T03:56:26;16.93;;;15.93;;
21543;SDS011;10933;50.754;11.508;2023-05-16T03:58:52;16.20;;;15.40;;
21543;SDS011;10933;50.754;11.508;2023-05-16T04:01:19;16.40;;;15.07;;
21543;SDS011;10933;50.754;11.508;2023-05-16T04:03:45;17.47;;;16.30;;
21543;SDS011;10933;50.754;11.508;2023-05-16T04:06:11;16.83;;;15.63;;
21543;SDS011;10933;50.754;11.508;2023-05-16T04:08:37;17.70;;;16.33;;
21543;SDS011;10933;50.754;11.508;2023-05-16T04:11:05;17.13;;;16.03;;
21543;SDS011;10933;50.754;11.508;2023-05-16T04:13:31;16.93;;;15.83;;
21543;SDS011;10933;50.754;11.508;2023-05-16T04:15:57;17.17;;;16.20;;
21543;SDS011;10933;50.754;11.508;2023-05-16T04:18:23;16.97;;;16.17;;
21543;SDS011;10933;50.754;11.508;2023-05-16T04:20:49;16.47;;;15.57;;
21543;SDS011;10933;50.754;11.508;2023-05-16T04:23:15;16.43;;;15.53;;
21543;SDS011;10933;50.754;11.508;2023-05-16T04:25:41;15.13;;;14.10;;
21543;SDS011;10933;50.754;11.508;2023-05-16T04:28:08;16.67;;;15.63;;
21543;SDS011;10933;50.754;11.508;2023-05-16T04:30:34;16.37;;;15.47;;
21543;SDS011;10933;50.754;11.508;2023-05-16T04:33:01;16.37;;;15.37;;
21543;SDS011;10933;50.754;11.508;2023-05-16T04:35:27;16.53;;;15.43;;
21543;SDS011;10933;50.754;11.508;2023-05-16T04:37:53;16.47;;;15.67;;
21543;SDS011;10933;50.754;11.508;2023-05-16T04:40:20;16.10;;;15.17;;
21543;SDS011;10933;50.754;11.508;2023-05-16T04:42:46;17.33;;;16.43;;
21543;SDS011;10933;50.754;11.508;2023-05-16T04:45:12;17.43;;;16.17;;
21543;SDS011;10933;50.754;11.508;2023-05-16T04:47:38;17.17;;;15.97;;
21543;SDS011;10933;50.754;11.508;2023-05-16T04:50:05;17.20;;;16.40;;
21543;SDS011;10933;50.754;11.508;2023-05-16T04:52:33;17.17;;;16.00;;
21543;SDS011;10933;50.754;11.508;2023-05-16T04:54:59;18.10;;;16.97;;
21543;SDS011;10933;50.754;11.508;2023-05-16T04:57:25;18.90;;;17.90;;
21543;SDS011;10933;50.754;11.508;2023-05-16T04:59:52;16.90;;;16.00;;
21543;SDS011;10933;50.754;11.508;2023-05-16T05:02:18;19.33;;;17.90;;
21543;SDS011;10933;50.754;11.508;2023-05-16T05:04:44;19.17;;;17.50;;
21543;SDS011;10933;50.754;11.508;2023-05-16T05:07:11;19.73;;;18.47;;
21543;SDS011;10933;50.754;11.508;2023-05-16T05:09:40;19.20;;;18.00;;
21543;SDS011;10933;50.754;11.508;2023-05-16T05:12:07;20.30;;;18.73;;
21543;SDS011;10933;50.754;11.508;2023-05-16T05:14:33;19.20;;;18.10;;
21543;SDS011;10933;50.754;11.508;2023-05-16T05:17:00;17.27;;;15.87;;
21543;SDS011;10933;50.754;11.508;2023-05-16T05:19:26;16.83;;;15.73;;
21543;SDS011;10933;50.754;11.508;2023-05-16T05:21:52;16.60;;;15.60;;
21543;SDS011;10933;50.754;11.508;2023-05-16T05:24:18;15.73;;;14.67;;
21543;SDS011;10933;50.754;11.508;2023-05-16T05:26:44;15.23;;;14.43;;
21543;SDS011;10933;50.754;11.508;2023-05-16T05:29:10;14.20;;;13.13;;
21543;SDS011;10933;50.754;11.508;2023-05-16T05:31:36;14.93;;;14.03;;
21543;SDS011;10933;50.754;11.508;2023-05-16T05:34:02;14.17;;;13.20;;
21543;SDS011;10933;50.754;11.508;2023-05-16T05:36:29;14.33;;;13.43;;
21543;SDS011;10933;50.754;11.508;2023-05-16T05:38:55;12.90;;;12.10;;
21543;SDS011;10933;50.754;11.508;2023-05-16T05:41:21;12.60;;;11.80;;
21543;SDS011;10933;50.754;11.508;2023-05-16T05:43:47;14.37;;;13.33;;
21543;SDS011;10933;50.754;11.508;2023-05-16T05:46:15;13.13;;;12.13;;
21543;SDS011;10933;50.754;11.508;2023-05-16T05:48:41;11.73;;;11.13;;
21543;SDS011;10933;50.754;11.508;2023-05-16T05:51:07;11.63;;;10.93;;
21543;SDS011;10933;50.754;11.508;2023-05-16T05:53:33;11.55;;;10.95;;
21543;SDS011;10933;50.754;11.508;2023-05-16T05:56:00;12.18;;;11.50;;
21543;SDS011;10933;50.754;11.508;2023-05-16T05:58:26;11.30;;;10.70;;
21543;SDS011;10933;50.754;11.508;2023-05-16T06:00:52;11.27;;;10.68;;
21543;SDS011;10933;50.754;11.508;2023-05-16T06:03:18;11.75;;;11.13;;
21543;SDS011;10933;50.754;11.508;2023-05-16T06:05:45;10.80;;;10.25;;
21543;SDS011;10933;50.754;11.508;2023-05-16T06:08:12;11.23;;;10.68;;
21543;SDS011;10933;50.754;11.508;2023-05-16T06:10:38;11.00;;;10.27;;
21543;SDS011;10933;50.754;11.508;2023-05-16T06:13:04;11.30;;;10.60;;
21543;SDS011;10933;50.754;11.508;2023-05-16T06:15:30;11.07;;;10.48;;
21543;SDS011;10933;50.754;11.508;2023-05-16T06:17:56;10.65;;;10.15;;
21543;SDS011;10933;50.754;11.508;2023-05-16T06:20:23;12.27;;;11.23;;
21543;SDS011;10933;50.754;11.508;2023-05-16T06:22:49;10.57;;;10.00;;
21543;SDS011;10933;50.754;11.508;2023-05-16T06:25:15;11.32;;;10.73;;
21543;SDS011;10933;50.754;11.508;2023-05-16T06:27:42;9.65;;;9.15;;
21543;SDS011;10933;50.754;11.508;2023-05-16T06:30:08;10.60;;;10.10;;
21543;SDS011;10933;50.754;11.508;2023-05-16T06:32:34;9.60;;;8.88;;
21543;SDS011;10933;50.754;11.508;2023-05-16T06:35:01;9.85;;;9.25;;
21543;SDS011;10933;50.754;11.508;2023-05-16T06:37:27;9.85;;;9.35;;
21543;SDS011;10933;50.754;11.508;2023-05-16T06:39:53;10.18;;;9.23;;
21543;SDS011;10933;50.754;11.508;2023-05-16T06:42:19;9.85;;;9.27;;
21543;SDS011;10933;50.754;11.508;2023-05-16T06:44:46;9.65;;;9.15;;
21543;SDS011;10933;50.754;11.508;2023-05-16T06:47:12;9.63;;;9.13;;
21543;SDS011;10933;50.754;11.508;2023-05-16T06:49:38;9.18;;;8.68;;
21543;SDS011;10933;50.754;11.508;2023-05-16T06:52:04;9.85;;;9.35;;
21543;SDS011;10933;50.754;11.508;2023-05-16T06:54:30;9.95;;;9.45;;
21543;SDS011;10933;50.754;11.508;2023-05-16T06:56:57;9.98;;;9.27;;
21543;SDS011;10933;50.754;11.508;2023-05-16T06:59:23;10.70;;;9.85;;
21543;SDS011;10933;50.754;11.508;2023-05-16T07:01:49;9.90;;;9.40;;
21543;SDS011;10933;50.754;11.508;2023-05-16T07:04:15;10.75;;;10.02;;
21543;SDS011;10933;50.754;11.508;2023-05-16T07:06:41;10.75;;;10.05;;
21543;SDS011;10933;50.754;11.508;2023-05-16T07:09:07;10.25;;;9.75;;
21543;SDS011;10933;50.754;11.508;2023-05-16T07:11:34;9.50;;;8.90;;
21543;SDS011;10933;50.754;11.508;2023-05-16T07:14:00;8.50;;;8.00;;
21543;SDS011;10933;50.754;11.508;2023-05-16T07:16:26;9.32;;;8.75;;
21543;SDS011;10933;50.754;11.508;2023-05-16T07:18:52;8.40;;;7.90;;
21543;SDS011;10933;50.754;11.508;2023-05-16T07:21:19;20.42;;;9.13;;
21543;SDS011;10933;50.754;11.508;2023-05-16T07:23:45;8.35;;;7.88;;
21543;SDS011;10933;50.754;11.508;2023-05-16T07:26:11;8.93;;;8.43;;
21543;SDS011;10933;50.754;11.508;2023-05-16T07:28:37;7.28;;;6.85;;
21543;SDS011;10933;50.754;11.508;2023-05-16T07:31:04;6.90;;;6.50;;
21543;SDS011;10933;50.754;11.508;2023-05-16T07:33:31;7.90;;;7.30;;
21543;SDS011;10933;50.754;11.508;2023-05-16T07:35:57;6.78;;;6.38;;
21543;SDS011;10933;50.754;11.508;2023-05-16T07:38:24;6.07;;;5.78;;
21543;SDS011;10933;50.754;11.508;2023-05-16T07:40:50;6.53;;;5.97;;
21543;SDS011;10933;50.754;11.508;2023-05-16T07:43:17;5.93;;;5.63;;
21543;SDS011;10933;50.754;11.508;2023-05-16T07:45:43;5.75;;;5.45;;
21543;SDS011;10933;50.754;11.508;2023-05-16T07:48:09;5.53;;;5.22;;
21543;SDS011;10933;50.754;11.508;2023-05-16T07:50:35;5.53;;;5.22;;
21543;SDS011;10933;50.754;11.508;2023-05-16T07:53:01;5.40;;;5.10;;
21543;SDS011;10933;50.754;11.508;2023-05-16T07:55:28;5.30;;;4.90;;
21543;SDS011;10933;50.754;11.508;2023-05-16T07:57:54;4.97;;;4.68;;
21543;SDS011;10933;50.754;11.508;2023-05-16T08:00:20;4.55;;;4.32;;
21543;SDS011;10933;50.754;11.508;2023-05-16T08:02:47;5.25;;;5.00;;
21543;SDS011;10933;50.754;11.508;2023-05-16T08:05:13;5.57;;;5.28;;
21543;SDS011;10933;50.754;11.508;2023-05-16T08:07:39;5.47;;;5.07;;
21543;SDS011;10933;50.754;11.508;2023-05-16T08:10:05;5.45;;;5.15;;
21543;SDS011;10933;50.754;11.508;2023-05-16T08:12:32;5.68;;;5.38;;
21543;SDS011;10933;50.754;11.508;2023-05-16T08:14:58;5.47;;;5.18;;
21543;SDS011;10933;50.754;11.508;2023-05-16T08:17:24;4.35;;;4.15;;
21543;SDS011;10933;50.754;11.508;2023-05-16T08:19:50;4.97;;;4.68;;
21543;SDS011;10933;50.754;11.508;2023-05-16T08:22:17;4.47;;;4.13;;
21543;SDS011;10933;50.754;11.508;2023-05-16T08:24:43;4.65;;;4.45;;
21543;SDS011;10933;50.754;11.508;2023-05-16T08:27:09;4.68;;;4.30;;
21543;SDS011;10933;50.754;11.508;2023-05-16T08:29:36;4.70;;;4.40;;
21543;SDS011;10933;50.754;11.508;2023-05-16T08:32:02;4.78;;;4.50;;
21543;SDS011;10933;50.754;11.508;2023-05-16T08:34:32;4.97;;;4.72;;
21543;SDS011;10933;50.754;11.508;2023-05-16T08:36:58;4.75;;;4.55;;
21543;SDS011;10933;50.754;11.508;2023-05-16T08:39:25;4.82;;;4.63;;
21543;SDS011;10933;50.754;11.508;2023-05-16T08:41:51;5.22;;;4.93;;
21543;SDS011;10933;50.754;11.508;2023-05-16T08:44:17;8.20;;;7.73;;
21543;SDS011;10933;50.754;11.508;2023-05-16T08:46:52;5.22;;;4.93;;
21543;SDS011;10933;50.754;11.508;2023-05-16T08:49:19;5.10;;;4.82;;
21543;SDS011;10933;50.754;11.508;2023-05-16T08:51:47;5.63;;;5.32;;
21543;SDS011;10933;50.754;11.508;2023-05-16T08:54:15;4.53;;;4.32;;
21543;SDS011;10933;50.754;11.508;2023-05-16T08:56:42;4.95;;;4.65;;
21543;SDS011;10933;50.754;11.508;2023-05-16T08:59:10;4.70;;;4.30;;
21543;SDS011;10933;50.754;11.508;2023-05-16T09:01:37;4.80;;;4.50;;
21543;SDS011;10933;50.754;11.508;2023-05-16T09:04:05;4.10;;;3.90;;
21543;SDS011;10933;50.754;11.508;2023-05-16T09:06:33;4.63;;;4.22;;
21543;SDS011;10933;50.754;11.508;2023-05-16T09:09:03;5.93;;;4.20;;
21543;SDS011;10933;50.754;11.508;2023-05-16T09:11:32;3.90;;;3.65;;
21543;SDS011;10933;50.754;11.508;2023-05-16T09:13:59;4.00;;;3.80;;
21543;SDS011;10933;50.754;11.508;2023-05-16T09:16:25;4.03;;;3.83;;
21543;SDS011;10933;50.754;11.508;2023-05-16T09:18:53;4.90;;;4.50;;
21543;SDS011;10933;50.754;11.508;2023-05-16T09:21:21;5.18;;;3.97;;
21543;SDS011;10933;50.754;11.508;2023-05-16T09:23:50;4.70;;;4.50;;
21543;SDS011;10933;50.754;11.508;2023-05-16T09:26:17;4.57;;;4.13;;
21543;SDS011;10933;50.754;11.508;2023-05-16T09:28:43;3.95;;;3.75;;
21543;SDS011;10933;50.754;11.508;2023-05-16T09:34:08;4.18;;;3.97;;
21543;SDS011;10933;50.754;11.508;2023-05-16T09:36:37;4.00;;;3.80;;
21543;SDS011;10933;50.754;11.508;2023-05-16T09:39:06;3.97;;;3.78;;
21543;SDS011;10933;50.754;11.508;2023-05-16T09:41:33;4.20;;;3.90;;
21543;SDS011;10933;50.754;11.508;2023-05-16T09:44:04;4.63;;;4.25;;
21543;SDS011;10933;50.754;11.508;2023-05-16T09:46:32;4.40;;;4.10;;
21543;SDS011;10933;50.754;11.508;2023-05-16T09:48:59;4.70;;;4.50;;
21543;SDS011;10933;50.754;11.508;2023-05-16T09:51:26;4.25;;;4.05;;
21543;SDS011;10933;50.754;11.508;2023-05-16T09:53:53;4.10;;;3.90;;
21543;SDS011;10933;50.754;11.508;2023-05-16T09:56:19;4.40;;;4.20;;
21543;SDS011;10933;50.754;11.508;2023-05-16T09:58:45;5.05;;;4.65;;
21543;SDS011;10933;50.754;11.508;2023-05-16T10:01:11;4.95;;;4.65;;
21543;SDS011;10933;50.754;11.508;2023-05-16T10:03:38;4.55;;;4.35;;
21543;SDS011;10933;50.754;11.508;2023-05-16T10:06:06;4.80;;;4.40;;
21543;SDS011;10933;50.754;11.508;2023-05-16T10:08:33;5.50;;;5.03;;
21543;SDS011;10933;50.754;11.508;2023-05-16T10:11:01;4.40;;;4.20;;
21543;SDS011;10933;50.754;11.508;2023-05-16T10:13:29;5.03;;;4.63;;
21543;SDS011;10933;50.754;11.508;2023-05-16T10:15:57;5.07;;;4.78;;
21543;SDS011;10933;50.754;11.508;2023-05-16T10:18:29;5.40;;;5.10;;
21543;SDS011;10933;50.754;11.508;2023-05-16T10:20:56;5.28;;;4.97;;
21543;SDS011;10933;50.754;11.508;2023-05-16T10:23:28;5.10;;;4.70;;
21543;SDS011;10933;50.754;11.508;2023-05-16T10:25:55;5.18;;;4.88;;
21543;SDS011;10933;50.754;11.508;2023-05-16T10:28:23;5.30;;;5.00;;
21543;SDS011;10933;50.754;11.508;2023-05-16T10:30:49;4.43;;;4.22;;
21543;SDS011;10933;50.754;11.508;2023-05-16T10:33:17;7.10;;;6.70;;
21543;SDS011;10933;50.754;11.508;2023-05-16T10:35:45;4.65;;;4.45;;
21543;SDS011;10933;50.754;11.508;2023-05-16T10:38:13;3.90;;;3.70;;
21543;SDS011;10933;50.754;11.508;2023-05-16T10:40:41;3.80;;;3.58;;
21543;SDS011;10933;50.754;11.508;2023-05-16T10:43:08;4.00;;;3.80;;
21543;SDS011;10933;50.754;11.508;2023-05-16T10:45:38;3.60;;;3.40;;
21543;SDS011;10933;50.754;11.508;2023-05-16T10:48:09;4.22;;;3.83;;
21543;SDS011;10933;50.754;11.508;2023-05-16T10:55:43;4.35;;;4.05;;
21543;SDS011;10933;50.754;11.508;2023-05-16T10:58:10;4.20;;;3.90;;
21543;SDS011;10933;50.754;11.508;2023-05-16T11:00:37;3.67;;;3.38;;
21543;SDS011;10933;50.754;11.508;2023-05-16T11:03:04;3.95;;;3.75;;
21543;SDS011;10933;50.754;11.508;2023-05-16T11:05:43;4.28;;;4.07;;
21543;SDS011;10933;50.754;11.508;2023-05-16T11:08:16;4.22;;;3.78;;
21543;SDS011;10933;50.754;11.508;2023-05-16T11:10:42;4.60;;;4.20;;
21543;SDS011;10933;50.754;11.508;2023-05-16T11:13:08;4.30;;;4.00;;
21543;SDS011;10933;50.754;11.508;2023-05-16T11:15:35;4.68;;;4.38;;
21543;SDS011;10933;50.754;11.508;2023-05-16T11:18:02;4.93;;;4.63;;
21543;SDS011;10933;50.754;11.508;2023-05-16T11:20:30;4.18;;;3.95;;
21543;SDS011;10933;50.754;11.508;2023-05-16T11:25:48;4.47;;;4.28;;
21543;SDS011;10933;50.754;11.508;2023-05-16T11:28:18;4.50;;;4.20;;
21543;SDS011;10933;50.754;11.508;2023-05-16T11:30:45;4.07;;;3.70;;
21543;SDS011;10933;50.754;11.508;2023-05-16T11:33:14;4.47;;;4.05;;
21543;SDS011;10933;50.754;11.508;2023-05-16T11:35:41;2.63;;;2.42;;
21543;SDS011;10933;50.754;11.508;2023-05-16T11:38:11;2.70;;;2.50;;
21543;SDS011;10933;50.754;11.508;2023-05-16T11:40:43;2.70;;;2.47;;
21543;SDS011;10933;50.754;11.508;2023-05-16T11:43:10;2.28;;;2.17;;
21543;SDS011;10933;50.754;11.508;2023-05-16T11:45:41;2.47;;;2.28;;
21543;SDS011;10933;50.754;11.508;2023-05-16T11:48:09;2.42;;;2.33;;
21543;SDS011;10933;50.754;11.508;2023-05-16T11:50:35;3.15;;;2.47;;
21543;SDS011;10933;50.754;11.508;2023-05-16T11:53:02;2.90;;;2.58;;
21543;SDS011;10933;50.754;11.508;2023-05-16T11:55:28;3.40;;;2.63;;
21543;SDS011;10933;50.754;11.508;2023-05-16T11:57:58;3.08;;;2.83;;
21543;SDS011;10933;50.754;11.508;2023-05-16T12:00:25;3.10;;;2.90;;
21543;SDS011;10933;50.754;11.508;2023-05-16T12:02:53;3.88;;;2.50;;
21543;SDS011;10933;50.754;11.508;2023-05-16T12:05:25;4.63;;;3.95;;
21543;SDS011;10933;50.754;11.508;2023-05-16T12:07:52;4.18;;;3.58;;
21543;SDS011;10933;50.754;11.508;2023-05-16T12:10:18;6.70;;;3.42;;
21543;SDS011;10933;50.754;11.508;2023-05-16T12:12:46;3.95;;;3.65;;
21543;SDS011;10933;50.754;11.508;2023-05-16T12:15:16;7.03;;;3.83;;
21543;SDS011;10933;50.754;11.508;2023-05-16T12:17:43;4.75;;;3.30;;
21543;SDS011;10933;50.754;11.508;2023-05-16T12:20:10;5.07;;;3.92;;
21543;SDS011;10933;50.754;11.508;2023-05-16T12:22:39;4.45;;;3.88;;
21543;SDS011;10933;50.754;11.508;2023-05-16T12:27:54;5.75;;;5.28;;
21543;SDS011;10933;50.754;11.508;2023-05-16T12:30:23;3.85;;;3.55;;
21543;SDS011;10933;50.754;11.508;2023-05-16T12:32:55;3.85;;;3.38;;
21543;SDS011;10933;50.754;11.508;2023-05-16T12:35:22;5.30;;;3.35;;
21543;SDS011;10933;50.754;11.508;2023-05-16T12:37:49;3.38;;;3.08;;
21543;SDS011;10933;50.754;11.508;2023-05-16T12:40:16;3.25;;;2.88;;
21543;SDS011;10933;50.754;11.508;2023-05-16T12:42:44;6.57;;;2.75;;
21543;SDS011;10933;50.754;11.508;2023-05-16T12:45:15;4.40;;;3.25;;
21543;SDS011;10933;50.754;11.508;2023-05-16T12:47:42;3.87;;;2.87;;
21543;SDS011;10933;50.754;11.508;2023-05-16T12:50:09;3.70;;;3.10;;
21543;SDS011;10933;50.754;11.508;2023-05-16T12:52:44;3.72;;;3.42;;
21543;SDS011;10933;50.754;11.508;2023-05-16T12:55:13;8.07;;;3.15;;
21543;SDS011;10933;50.754;11.508;2023-05-16T12:57:43;5.97;;;3.72;;
21543;SDS011;10933;50.754;11.508;2023-05-16T13:00:12;5.22;;;3.08;;
21543;SDS011;10933;50.754;11.508;2023-05-16T13:02:39;6.65;;;3.40;;
21543;SDS011;10933;50.754;11.508;2023-05-16T13:05:06;3.20;;;3.00;;
21543;SDS011;10933;50.754;11.508;2023-05-16T13:07:33;3.25;;;2.88;;
21543;SDS011;10933;50.754;11.508;2023-05-16T13:10:00;2.97;;;2.63;;
21543;SDS011;10933;50.754;11.508;2023-05-16T13:12:26;4.00;;;2.67;;
21543;SDS011;10933;50.754;11.508;2023-05-16T13:14:52;4.20;;;2.60;;
21543;SDS011;10933;50.754;11.508;2023-05-16T13:17:19;4.15;;;2.60;;
21543;SDS011;10933;50.754;11.508;2023-05-16T13:19:45;4.05;;;2.70;;
21543;SDS011;10933;50.754;11.508;2023-05-16T13:22:11;4.28;;;2.95;;
21543;SDS011;10933;50.754;11.508;2023-05-16T13:24:37;5.68;;;2.70;;
21543;SDS011;10933;50.754;11.508;2023-05-16T13:27:03;2.65;;;2.42;;
21543;SDS011;10933;50.754;11.508;2023-05-16T13:29:29;2.58;;;2.35;;
21543;SDS011;10933;50.754;11.508;2023-05-16T13:31:56;4.20;;;2.38;;
21543;SDS011;10933;50.754;11.508;2023-05-16T13:34:22;2.72;;;2.53;;
21543;SDS011;10933;50.754;11.508;2023-05-16T13:36:48;5.25;;;2.55;;
21543;SDS011;10933;50.754;11.508;2023-05-16T13:39:15;4.30;;;2.78;;
21543;SDS011;10933;50.754;11.508;2023-05-16T13:41:42;3.00;;;2.80;;
21543;SDS011;10933;50.754;11.508;2023-05-16T13:44:08;4.30;;;2.40;;
21543;SDS011;10933;50.754;11.508;2023-05-16T13:46:34;5.00;;;2.20;;
21543;SDS011;10933;50.754;11.508;2023-05-16T13:49:01;2.55;;;2.33;;
21543;SDS011;10933;50.754;11.508;2023-05-16T13:51:27;2.67;;;1.92;;
21543;SDS011;10933;50.754;11.508;2023-05-16T13:53:54;3.92;;;2.42;;
21543;SDS011;10933;50.754;11.508;2023-05-16T13:56:21;3.33;;;1.48;;
21543;SDS011;10933;50.754;11.508;2023-05-16T13:58:47;2.83;;;1.85;;
21543;SDS011;10933;50.754;11.508;2023-05-16T14:01:14;2.42;;;1.77;;
21543;SDS011;10933;50.754;11.508;2023-05-16T14:03:40;1.90;;;1.50;;
21543;SDS011;10933;50.754;11.508;2023-05-16T14:06:07;5.25;;;1.35;;
21543;SDS011;10933;50.754;11.508;2023-05-16T14:08:34;3.28;;;1.10;;
21543;SDS011;10933;50.754;11.508;2023-05-16T14:11:00;5.25;;;1.45;;
21543;SDS011;10933;50.754;11.508;2023-05-16T14:13:26;3.17;;;0.98;;
21543;SDS011;10933;50.754;11.508;2023-05-16T14:15:52;5.70;;;1.33;;
21543;SDS011;10933;50.754;11.508;2023-05-16T14:18:19;3.35;;;1.17;;
21543;SDS011;10933;50.754;11.508;2023-05-16T14:20:45;2.15;;;1.00;;
21543;SDS011;10933;50.754;11.508;2023-05-16T14:23:11;2.28;;;1.17;;
21543;SDS011;10933;50.754;11.508;2023-05-16T14:25:37;6.82;;;1.33;;
21543;SDS011;10933;50.754;11.508;2023-05-16T14:28:03;2.58;;;1.67;;
21543;SDS011;10933;50.754;11.508;2023-05-16T14:30:29;2.47;;;1.27;;
21543;SDS011;10933;50.754;11.508;2023-05-16T14:32:55;2.53;;;1.10;;
21543;SDS011;10933;50.754;11.508;2023-05-16T14:35:23;2.15;;;0.90;;
21543;SDS011;10933;50.754;11.508;2023-05-16T14:37:49;2.50;;;1.20;;
21543;SDS011;10933;50.754;11.508;2023-05-16T14:40:15;2.35;;;0.95;;
21543;SDS011;10933;50.754;11.508;2023-05-16T14:42:41;2.55;;;0.90;;
21543;SDS011;10933;50.754;11.508;2023-05-16T14:45:08;3.55;;;1.00;;
21543;SDS011;10933;50.754;11.508;2023-05-16T14:47:34;2.72;;;0.95;;
21543;SDS011;10933;50.754;11.508;2023-05-16T14:50:00;4.55;;;2.03;;
21543;SDS011;10933;50.754;11.508;2023-05-16T14:52:27;5.40;;;1.08;;